Time;durP1;ratioP1;P1;durP2;ratioP2;P2;SDS_P1;SDS_P2;PMS_P1;PMS_P2;Temp;Humidity;BMP_temperature;BMP_pressure;BME280_temperature;BME280_humidity;BME280_pressure;Samples;Min_cycle;Max_cycle;Signal;HPM_P1;HPM_P2
2023/03/10 00:00:07;;;;;;;4.20;3.80;;;;;;;4.45;100.00;95202.94;5059705;28;20213;-71
2023/03/10 00:02:36;;;;;;;4.07;3.67;;;;;;;4.41;100.00;95194.63;5025191;28;20226;-70
2023/03/10 00:05:04;;;;;;;4.37;3.53;;;;;;;4.42;100.00;95195.44;5047969;28;20217;-70
2023/03/10 00:07:32;;;;;;;7.97;3.57;;;;;;;4.41;100.00;95180.72;5070883;28;20209;-73
2023/03/10 00:10:00;;;;;;;6.83;3.57;;;;;;;4.43;100.00;95181.34;5068879;28;20703;-70
2023/03/10 00:12:27;;;;;;;4.20;3.07;;;;;;;4.42;100.00;95171.84;5073613;28;20225;-70
2023/03/10 00:14:55;;;;;;;4.90;3.37;;;;;;;4.41;100.00;95170.22;5057643;28;20301;-70
2023/03/10 00:17:23;;;;;;;4.40;3.53;;;;;;;4.39;100.00;95167.00;5019934;28;20407;-69
2023/03/10 00:19:52;;;;;;;6.13;3.03;;;;;;;4.42;100.00;95171.84;5047289;28;20213;-70
2023/03/10 00:22:20;;;;;;;3.83;3.37;;;;;;;4.46;100.00;95173.88;5065783;28;21199;-71
2023/03/10 00:24:47;;;;;;;4.27;3.83;;;;;;;4.49;100.00;95164.81;5070125;28;20202;-71
2023/03/10 00:27:15;;;;;;;4.37;3.13;;;;;;;4.53;100.00;95165.22;5068441;28;20224;-70
2023/03/10 00:29:43;;;;;;;3.93;3.30;;;;;;;4.54;100.00;95157.16;5065261;28;20278;-68
2023/03/10 00:32:10;;;;;;;4.00;3.23;;;;;;;4.52;100.00;95153.94;4999875;28;21042;-69
2023/03/10 00:34:38;;;;;;;4.00;3.13;;;;;;;4.57;100.00;95162.00;5053647;28;20533;-69
2023/03/10 00:37:08;;;;;;;3.63;2.53;;;;;;;4.58;100.00;95147.91;5061969;28;20802;-69
2023/03/10 00:39:35;;;;;;;3.07;2.77;;;;;;;4.60;100.00;95150.34;5073438;28;20199;-70
2023/03/10 00:42:03;;;;;;;3.63;2.60;;;;;;;4.63;100.00;95147.31;5069772;28;20634;-69
2023/03/10 00:44:31;;;;;;;3.27;2.93;;;;;;;4.71;100.00;95143.69;5073665;28;20228;-67
2023/03/10 00:46:58;;;;;;;4.50;2.97;;;;;;;4.76;100.00;95138.69;5052518;28;20230;-69
2023/03/10 00:49:26;;;;;;;5.37;3.00;;;;;;;4.77;100.00;95137.69;5020217;28;20587;-69
2023/03/10 00:51:54;;;;;;;4.20;2.43;;;;;;;4.71;100.00;95120.91;5045550;28;20206;-70
2023/03/10 00:54:23;;;;;;;3.40;2.87;;;;;;;4.60;100.00;95129.34;5069089;28;20263;-69
2023/03/10 00:56:51;;;;;;;4.60;2.80;;;;;;;4.56;100.00;95125.50;5070296;28;20224;-68
2023/03/10 00:59:18;;;;;;;3.20;2.87;;;;;;;4.53;100.00;95121.44;5072530;28;20321;-68
2023/03/10 01:01:46;;;;;;;6.17;3.70;;;;;;;4.47;100.00;95117.00;5068976;28;20217;-68
2023/03/10 01:04:17;;;;;;;5.27;2.77;;;;;;;4.43;100.00;95118.41;5001751;28;20560;-69
2023/03/10 01:06:46;;;;;;;5.43;2.97;;;;;;;4.47;100.00;95114.38;5044328;28;20234;-69
2023/03/10 01:09:15;;;;;;;4.30;2.80;;;;;;;4.44;100.00;95109.53;5063135;28;20233;-68
2023/03/10 01:11:44;;;;;;;4.13;3.33;;;;;;;4.43;100.00;95107.91;5071024;28;20695;-69
2023/03/10 01:14:13;;;;;;;5.87;3.63;;;;;;;4.37;100.00;95099.00;5070317;28;20198;-69
2023/03/10 01:16:41;;;;;;;4.97;2.83;;;;;;;4.39;100.00;95097.00;5071552;28;20267;-69
2023/03/10 01:19:09;;;;;;;4.23;3.30;;;;;;;4.32;100.00;95088.31;5027170;28;20582;-67
2023/03/10 01:21:38;;;;;;;2.83;2.63;;;;;;;4.40;100.00;95082.09;5049549;28;20696;-69
2023/03/10 01:24:07;;;;;;;4.30;3.07;;;;;;;4.43;100.00;95077.22;5068456;28;20697;-68
2023/03/10 01:26:35;;;;;;;3.33;3.03;;;;;;;4.56;100.00;95081.72;5072413;28;20246;-70
2023/03/10 01:29:04;;;;;;;3.30;2.57;;;;;;;4.60;100.00;95085.56;5074305;28;20340;-68
2023/03/10 01:31:32;;;;;;;3.00;2.57;;;;;;;4.63;100.00;95074.66;5067962;28;20649;-69
2023/03/10 01:34:00;;;;;;;3.70;3.10;;;;;;;4.60;100.00;95069.03;5044917;28;20719;-69
2023/03/10 01:36:28;;;;;;;4.27;2.63;;;;;;;4.68;100.00;95066.22;5051337;28;20636;-69
2023/03/10 01:38:56;;;;;;;2.83;2.53;;;;;;;4.69;100.00;95065.19;5048086;28;20205;-68
2023/03/10 01:41:24;;;;;;;3.07;2.77;;;;;;;4.74;100.00;95054.91;5069541;28;20913;-69
2023/03/10 01:43:53;;;;;;;3.00;2.47;;;;;;;4.74;100.00;95047.03;5072033;28;20198;-69
2023/03/10 01:46:34;;;;;;;3.07;2.87;;;;;;;4.76;100.00;95046.84;5073006;28;20222;-67
2023/03/10 01:49:08;;;;;;;2.77;2.57;;;;;;;4.76;100.00;95037.16;5027901;28;21160;-70
2023/03/10 01:51:37;;;;;;;4.03;2.63;;;;;;;4.72;100.00;95035.94;5067854;28;20365;-70
2023/03/10 01:54:09;;;;;;;3.03;2.73;;;;;;;4.75;100.00;95032.13;5045749;28;20198;-69
2023/03/10 01:56:37;;;;;;;2.43;2.23;;;;;;;4.71;100.00;95018.59;5072858;28;20651;-69
2023/03/10 01:59:05;;;;;;;5.07;2.93;;;;;;;4.77;100.00;95017.78;5058035;28;20239;-69
2023/03/10 02:01:35;;;;;;;3.87;2.97;;;;;;;4.74;100.00;95010.31;5050327;28;20202;-70
2023/03/10 02:04:06;;;;;;;3.67;2.90;;;;;;;4.70;100.00;95005.66;5024350;28;20257;-69
2023/03/10 02:06:36;;;;;;;4.37;2.30;;;;;;;4.67;100.00;95008.69;5050502;28;20881;-69
2023/03/10 02:09:04;;;;;;;2.90;2.70;;;;;;;4.60;100.00;95001.63;5039281;28;20662;-68
2023/03/10 02:11:32;;;;;;;3.87;2.80;;;;;;;4.58;100.00;95001.00;5068644;28;20749;-71
2023/03/10 02:14:02;;;;;;;3.67;2.60;;;;;;;4.57;100.00;94995.97;5061837;28;20211;-69
2023/03/10 02:16:30;;;;;;;3.53;3.17;;;;;;;4.58;100.00;94989.72;5065360;28;20279;-69
2023/03/10 02:18:59;;;;;;;3.10;2.73;;;;;;;4.52;100.00;94980.84;5065441;28;20233;-68
2023/03/10 02:21:37;;;;;;;4.20;2.67;;;;;;;4.46;100.00;94984.25;5018648;28;20220;-70
2023/03/10 02:24:11;;;;;;;3.13;2.83;;;;;;;4.42;100.00;94983.84;5039201;28;20221;-69
2023/03/10 02:26:48;;;;;;;2.97;2.63;;;;;;;4.41;100.00;94984.06;5067244;28;20229;-70
2023/03/10 02:29:21;;;;;;;5.80;2.83;;;;;;;4.34;100.00;94978.78;5067410;28;20988;-70
2023/03/10 02:31:50;;;;;;;4.33;3.00;;;;;;;4.28;100.00;94983.00;5058759;28;20190;-70
2023/03/10 02:34:18;;;;;;;4.43;3.00;;;;;;;4.17;100.00;94978.34;5062295;28;20615;-71
2023/03/10 02:36:46;;;;;;;2.63;2.43;;;;;;;4.17;100.00;94965.25;5017124;28;20250;-69
2023/03/10 02:39:13;;;;;;;4.73;3.77;;;;;;;4.18;100.00;94954.56;5043075;28;20210;-70
2023/03/10 02:41:41;;;;;;;3.27;3.00;;;;;;;4.09;100.00;94958.38;5065900;28;20665;-69
2023/03/10 02:44:13;;;;;;;6.00;2.97;;;;;;;4.13;100.00;94953.53;5062227;28;20278;-67
2023/03/10 02:46:42;;;;;;;3.80;3.53;;;;;;;4.13;100.00;94946.47;5064711;28;20548;-72
2023/03/10 02:49:11;;;;;;;3.00;2.77;;;;;;;4.22;100.00;94944.47;5062710;28;20221;-70
2023/03/10 02:51:40;;;;;;;3.87;2.90;;;;;;;4.27;100.00;94931.59;5070076;28;20194;-69
2023/03/10 02:54:09;;;;;;;3.00;2.37;;;;;;;4.31;100.00;94921.50;4999456;28;20333;-69
2023/03/10 02:56:37;;;;;;;4.63;2.93;;;;;;;4.30;100.00;94910.22;5067619;28;20221;-68
2023/03/10 02:59:06;;;;;;;2.80;2.53;;;;;;;4.33;100.00;94904.56;5062524;28;20578;-68
2023/03/10 03:01:34;;;;;;;3.73;2.87;;;;;;;4.39;100.00;94899.53;5068848;28;20194;-69
2023/03/10 03:04:03;;;;;;;4.93;3.17;;;;;;;4.46;100.00;94892.47;5060037;28;20228;-69
2023/03/10 03:06:31;;;;;;;3.83;3.10;;;;;;;4.54;100.00;94889.66;5060887;28;20227;-70
2023/03/10 03:08:59;;;;;;;3.97;2.90;;;;;;;4.65;100.00;94896.09;5019379;28;20206;-69
2023/03/10 03:11:27;;;;;;;3.70;2.97;;;;;;;4.80;100.00;94889.81;5048375;28;20435;-70
2023/03/10 03:13:55;;;;;;;5.33;2.60;;;;;;;4.89;100.00;94883.34;5053020;28;20218;-68
2023/03/10 03:16:22;;;;;;;3.00;2.47;;;;;;;4.92;100.00;94880.31;5068128;28;20429;-70
2023/03/10 03:18:50;;;;;;;4.57;3.00;;;;;;;4.92;100.00;94868.00;5063537;28;20662;-69
2023/03/10 03:21:20;;;;;;;4.70;2.70;;;;;;;4.89;100.00;94864.97;5060281;28;20289;-70
2023/03/10 03:23:48;;;;;;;3.03;2.70;;;;;;;4.87;100.00;94865.19;5021086;28;20213;-70
2023/03/10 03:26:21;;;;;;;4.00;2.73;;;;;;;4.86;100.00;94873.25;5055736;28;20336;-71
2023/03/10 03:28:50;;;;;;;2.90;2.70;;;;;;;4.84;100.00;94898.91;5080062;28;20201;-69
2023/03/10 03:31:21;;;;;;;4.90;3.17;;;;;;;4.92;100.00;94917.88;5069296;28;20226;-69
2023/03/10 03:33:48;;;;;;;2.73;2.53;;;;;;;4.87;100.00;94891.44;5077768;28;20289;-71
2023/03/10 03:36:17;;;;;;;3.20;2.90;;;;;;;4.89;100.00;94871.03;5072110;28;20455;-70
2023/03/10 03:38:46;;;;;;;2.67;2.47;;;;;;;4.87;100.00;94861.75;5080419;28;20202;-69
2023/03/10 03:41:14;;;;;;;3.17;2.53;;;;;;;4.82;100.00;94867.63;5010112;27;20210;-69
2023/03/10 03:43:42;;;;;;;3.50;2.40;;;;;;;4.73;100.00;94888.03;5079200;28;20541;-69
2023/03/10 03:46:10;;;;;;;3.20;2.90;;;;;;;4.63;100.00;94888.44;5072739;28;20213;-69
2023/03/10 03:48:37;;;;;;;3.70;2.80;;;;;;;4.69;100.00;94899.94;5080478;28;20202;-68
2023/03/10 03:51:05;;;;;;;3.90;2.73;;;;;;;4.76;100.00;94889.44;5075761;28;20830;-69
2023/03/10 03:53:34;;;;;;;6.00;3.30;;;;;;;4.83;100.00;94884.16;5060788;28;20286;-69
2023/03/10 03:56:03;;;;;;;3.60;3.00;;;;;;;4.85;100.00;94892.63;5025951;28;20224;-69
2023/03/10 03:58:30;;;;;;;3.57;2.87;;;;;;;4.82;100.00;94872.88;5068178;28;20212;-71
2023/03/10 04:00:58;;;;;;;5.70;2.97;;;;;;;4.80;100.00;94888.03;5072082;28;20325;-69
2023/03/10 04:03:26;;;;;;;4.77;3.10;;;;;;;4.84;100.00;94889.22;5075040;28;20400;-68
2023/03/10 04:05:54;;;;;;;3.53;2.80;;;;;;;4.81;100.00;94900.13;5079474;28;20271;-68
2023/03/10 04:08:21;;;;;;;3.17;2.83;;;;;;;4.77;100.00;94902.34;5067827;28;20518;-69
2023/03/10 04:10:52;;;;;;;4.37;3.33;;;;;;;4.75;100.00;94900.94;5032729;28;20229;-70
2023/03/10 04:13:21;;;;;;;2.97;2.77;;;;;;;4.70;100.00;94898.94;5038612;28;20307;-70
2023/03/10 04:15:49;;;;;;;4.07;3.07;;;;;;;4.64;100.00;94891.88;5075943;28;20643;-70
2023/03/10 04:18:17;;;;;;;2.97;2.63;;;;;;;4.53;100.00;94882.78;5065861;28;20269;-69
2023/03/10 04:20:44;;;;;;;3.40;2.73;;;;;;;4.59;100.00;94881.19;5068279;28;20821;-69
2023/03/10 04:23:12;;;;;;;3.90;2.93;;;;;;;4.54;100.00;94891.44;5071799;28;20589;-67
2023/03/10 04:25:41;;;;;;;4.13;3.07;;;;;;;4.53;100.00;94888.03;5032049;28;22994;-69
2023/03/10 04:28:09;;;;;;;4.40;2.70;;;;;;;4.52;100.00;94886.44;5057176;27;20224;-68
2023/03/10 04:30:41;;;;;;;3.33;3.00;;;;;;;4.58;100.00;94892.69;5070766;28;20223;-67
2023/03/10 04:33:10;;;;;;;4.67;3.60;;;;;;;4.55;100.00;94901.75;5069706;28;20245;-69
2023/03/10 04:35:40;;;;;;;3.33;2.83;;;;;;;4.56;100.00;94907.81;5065825;28;20804;-68
2023/03/10 04:38:07;;;;;;;3.07;2.80;;;;;;;4.56;100.00;94913.84;5066191;28;20650;-70
2023/03/10 04:40:37;;;;;;;4.37;2.93;;;;;;;4.68;100.00;94929.81;5024981;28;20214;-69
2023/03/10 04:43:04;;;;;;;3.30;2.90;;;;;;;4.69;100.00;94941.09;5048082;28;20209;-68
2023/03/10 04:45:32;;;;;;;5.83;3.27;;;;;;;4.80;100.00;94935.25;5064970;28;20684;-70
2023/03/10 04:48:01;;;;;;;3.50;2.77;;;;;;;4.88;100.00;94960.44;5065673;28;20680;-71
2023/03/10 04:50:29;;;;;;;5.77;3.00;;;;;;;4.85;100.00;94959.06;5067089;28;20202;-67
2023/03/10 04:52:57;;;;;;;4.90;3.33;;;;;;;4.78;100.00;94953.81;5047602;28;20208;-68
2023/03/10 04:55:24;;;;;;;3.13;2.93;;;;;;;4.68;100.00;94958.66;5068340;28;20222;-69
2023/03/10 04:57:52;;;;;;;4.67;3.17;;;;;;;4.61;100.00;94958.66;5000021;28;20210;-69
2023/03/10 05:00:20;;;;;;;4.60;3.57;;;;;;;4.59;100.00;94963.28;5053607;28;20605;-69
2023/03/10 05:02:47;;;;;;;5.17;3.40;;;;;;;4.56;100.00;94945.34;5064163;28;20207;-70
2023/03/10 05:05:17;;;;;;;4.03;3.30;;;;;;;4.47;100.00;94957.81;5057211;28;20686;-71
2023/03/10 05:07:45;;;;;;;4.17;3.87;;;;;;;4.48;100.00;94969.13;5039780;28;20854;-73
2023/03/10 05:10:12;;;;;;;4.57;4.13;;;;;;;4.47;100.00;94963.06;5069784;28;20708;-71
2023/03/10 05:12:41;;;;;;;4.60;3.60;;;;;;;4.47;100.00;94954.41;5026841;28;20233;-70
2023/03/10 05:15:09;;;;;;;3.23;2.93;;;;;;;4.47;100.00;94978.00;5051606;28;20658;-70
2023/03/10 05:17:37;;;;;;;5.07;3.57;;;;;;;4.40;100.00;94978.00;5070438;28;20221;-71
2023/03/10 05:20:06;;;;;;;8.03;3.60;;;;;;;4.39;100.00;94968.50;5052421;28;20202;-69
2023/03/10 05:22:36;;;;;;;4.27;3.30;;;;;;;4.27;100.00;94965.66;5064537;28;20217;-71
2023/03/10 05:25:04;;;;;;;3.30;3.00;;;;;;;4.19;100.00;94960.59;5066719;28;20212;-71
2023/03/10 05:27:32;;;;;;;3.13;2.87;;;;;;;4.34;100.00;94937.63;5024601;28;20473;-72
2023/03/10 05:30:00;;;;;;;5.33;3.00;;;;;;;4.61;100.00;94937.66;5048235;28;20202;-71
2023/03/10 05:32:27;;;;;;;3.03;2.83;;;;;;;4.77;100.00;94919.91;5068661;28;20613;-70
2023/03/10 05:34:55;;;;;;;4.87;3.10;;;;;;;5.05;100.00;94938.03;5053978;28;20677;-71
2023/03/10 05:37:23;;;;;;;3.10;2.90;;;;;;;5.05;100.00;94942.47;5062814;28;20203;-69
2023/03/10 05:39:52;;;;;;;4.83;3.10;;;;;;;5.08;100.00;94949.94;5077374;28;20198;-71
2023/03/10 05:42:20;;;;;;;3.60;2.40;;;;;;;5.21;100.00;94947.31;5067354;28;20213;-71
2023/03/10 05:44:47;;;;;;;2.57;2.37;;;;;;;5.33;100.00;94962.41;5035866;28;20880;-73
2023/03/10 05:47:17;;;;;;;2.57;2.33;;;;;;;5.34;100.00;94954.34;5066571;28;20550;-71
2023/03/10 05:49:45;;;;;;;2.27;1.90;;;;;;;5.52;100.00;94958.13;5049151;28;20324;-71
2023/03/10 05:52:13;;;;;;;2.23;2.13;;;;;;;5.58;100.00;94959.13;5066403;28;20222;-70
2023/03/10 05:54:40;;;;;;;3.10;2.80;;;;;;;5.67;100.00;94957.88;5072023;28;20402;-71
2023/03/10 05:57:09;;;;;;;2.17;2.07;;;;;;;5.66;100.00;94964.16;5069381;28;20379;-71
2023/03/10 05:59:40;;;;;;;2.43;2.07;;;;;;;5.62;100.00;94953.22;5026961;28;22537;-69
2023/03/10 06:02:08;;;;;;;2.80;2.60;;;;;;;5.56;100.00;94959.31;5069900;28;20198;-69
2023/03/10 06:04:37;;;;;;;2.17;2.00;;;;;;;5.58;100.00;94952.03;5046376;28;20226;-71
2023/03/10 06:07:04;;;;;;;2.67;1.90;;;;;;;5.56;100.00;94953.28;5069391;28;20232;-70
2023/03/10 06:09:32;;;;;;;2.43;1.77;;;;;;;5.63;100.00;94944.34;5067880;28;20242;-71
2023/03/10 06:12:00;;;;;;;2.20;2.10;;;;;;;5.59;100.00;94937.09;5052083;28;20214;-69
2023/03/10 06:14:29;;;;;;;1.97;1.87;;;;;;;5.72;100.00;94936.25;5041528;28;20222;-68
2023/03/10 06:16:57;;;;;;;1.90;1.83;;;;;;;5.67;100.00;94922.91;5009446;28;20237;-72
2023/03/10 06:19:25;;;;;;;1.90;1.80;;;;;;;5.72;100.00;94936.25;5062183;28;20198;-71
2023/03/10 06:21:52;;;;;;;1.50;1.40;;;;;;;5.67;100.00;94928.97;5047876;28;20675;-71
2023/03/10 06:24:20;;;;;;;2.00;1.70;;;;;;;5.63;100.00;94925.94;5070139;28;20305;-69
2023/03/10 06:26:48;;;;;;;2.03;1.63;;;;;;;5.69;100.00;94932.19;5071298;28;20225;-69
2023/03/10 06:29:16;;;;;;;1.83;1.40;;;;;;;5.76;100.00;94940.06;5065704;28;20209;-69
2023/03/10 06:31:45;;;;;;;1.20;1.20;;;;;;;5.80;100.00;94926.28;5009327;28;20339;-71
2023/03/10 06:34:13;;;;;;;2.73;1.57;;;;;;;5.83;100.00;94921.63;5069887;28;20260;-69
2023/03/10 06:36:41;;;;;;;1.60;1.50;;;;;;;5.83;100.00;94926.88;5049163;28;20707;-71
2023/03/10 06:39:09;;;;;;;2.97;1.80;;;;;;;5.87;100.00;94925.44;5069880;28;20201;-70
2023/03/10 06:41:37;;;;;;;1.57;1.37;;;;;;;5.90;100.00;94919.78;5039656;28;20359;-69
2023/03/10 06:44:05;;;;;;;1.77;1.67;;;;;;;5.89;100.00;94905.03;5067552;28;20205;-70
2023/03/10 06:46:32;;;;;;;1.90;1.80;;;;;;;5.96;100.00;94918.94;5007708;28;22205;-71
2023/03/10 06:49:01;;;;;;;1.77;1.67;;;;;;;6.07;100.00;94923.56;5054924;28;20547;-72
2023/03/10 06:51:29;;;;;;;1.43;1.40;;;;;;;6.04;100.00;94908.19;5067047;28;21497;-72
2023/03/10 06:53:56;;;;;;;1.30;1.20;;;;;;;6.09;100.00;94915.47;5050726;28;20210;-71
2023/03/10 06:56:24;;;;;;;1.30;1.20;;;;;;;6.11;100.00;94917.88;5063898;28;20432;-70
2023/03/10 06:58:51;;;;;;;1.30;1.30;;;;;;;6.08;100.00;94905.97;5067261;28;20198;-69
2023/03/10 07:01:25;;;;;;;1.17;1.17;;;;;;;6.07;100.00;94907.00;5032107;28;20384;-68
2023/03/10 07:03:53;;;;;;;1.60;1.40;;;;;;;6.13;100.00;94902.69;5036209;28;20214;-70
2023/03/10 07:06:22;;;;;;;1.90;1.43;;;;;;;6.19;100.00;94910.53;5047942;28;20745;-69
2023/03/10 07:08:50;;;;;;;2.50;2.03;;;;;;;6.25;100.00;94908.06;5041354;28;20202;-68
2023/03/10 07:11:18;;;;;;;1.73;1.63;;;;;;;6.17;100.00;94902.06;5067711;28;20625;-68
2023/03/10 07:13:46;;;;;;;1.93;1.63;;;;;;;6.15;100.00;94903.28;5069812;28;20216;-69
2023/03/10 07:16:13;;;;;;;6.53;5.63;;;;;;;6.12;100.00;94896.63;5066014;28;20220;-69
2023/03/10 07:18:41;;;;;;;3.73;3.00;;;;;;;6.20;100.00;94906.91;5021841;28;20358;-69
2023/03/10 07:21:10;;;;;;;1.90;1.80;;;;;;;6.22;100.00;94899.59;5064994;28;20209;-69
2023/03/10 07:23:39;;;;;;;1.77;1.70;;;;;;;6.26;100.00;94899.16;5046773;28;20300;-70
2023/03/10 07:26:07;;;;;;;1.80;1.50;;;;;;;6.26;100.00;94901.81;5066878;28;20606;-70
2023/03/10 07:28:36;;;;;;;1.70;1.60;;;;;;;6.25;100.00;94908.06;5066299;28;20319;-68
2023/03/10 07:31:04;;;;;;;1.63;1.53;;;;;;;6.18;100.00;94898.41;5062319;28;20206;-68
2023/03/10 07:33:32;;;;;;;1.90;1.47;;;;;;;6.21;100.00;94895.34;5019026;28;20291;-70
2023/03/10 07:36:04;;;;;;;1.93;1.50;;;;;;;6.23;100.00;94900.38;5065931;28;20222;-69
2023/03/10 07:38:31;;;;;;;2.03;1.87;;;;;;;6.20;100.00;94887.66;5040392;28;20214;-69
2023/03/10 07:41:00;;;;;;;2.67;1.67;;;;;;;6.11;100.00;94886.31;5070854;28;20210;-68
2023/03/10 07:43:28;;;;;;;3.30;2.30;;;;;;;6.04;100.00;94902.13;5058006;28;20186;-70
2023/03/10 07:45:56;;;;;;;2.73;2.53;;;;;;;5.86;100.00;94885.22;5064735;28;20296;-70
2023/03/10 07:48:24;;;;;;;3.30;2.47;;;;;;;5.96;100.00;94884.78;5017436;28;21175;-69
2023/03/10 07:51:00;;;;;;;3.27;2.97;;;;;;;5.86;100.00;94893.09;5065695;28;20196;-70
2023/03/10 07:53:29;;;;;;;3.23;3.00;;;;;;;5.74;100.00;94890.34;5049675;28;20311;-69
2023/03/10 07:55:56;;;;;;;3.93;3.53;;;;;;;5.68;100.00;94888.56;5045516;28;20450;-69
2023/03/10 07:58:26;;;;;;;3.90;3.60;;;;;;;5.84;100.00;94883.81;5060726;28;20204;-68
2023/03/10 08:00:55;;;;;;;4.60;4.20;;;;;;;6.07;100.00;94884.13;5069909;28;20212;-70
2023/03/10 08:03:23;;;;;;;3.30;3.10;;;;;;;6.13;100.00;94879.03;5020207;28;20200;-69
2023/03/10 08:05:51;;;;;;;6.90;6.20;;;;;;;6.28;100.00;94866.41;5072048;28;20218;-70
2023/03/10 08:08:19;;;;;;;4.90;3.80;;;;;;;6.34;100.00;94870.78;5060873;28;20206;-69
2023/03/10 08:10:47;;;;;;;3.70;3.40;;;;;;;6.40;100.00;94860.44;5054746;28;20221;-71
2023/03/10 08:13:14;;;;;;;6.00;4.00;;;;;;;6.45;100.00;94860.59;5068708;28;20226;-68
2023/03/10 08:15:43;;;;;;;4.77;3.97;;;;;;;6.45;100.00;94858.78;5066178;28;20508;-69
2023/03/10 08:18:12;;;;;;;3.80;3.50;;;;;;;6.37;100.00;94859.84;5050473;28;20190;-69
2023/03/10 08:20:39;;;;;;;3.40;3.20;;;;;;;6.53;100.00;94860.31;5048893;28;20550;-69
2023/03/10 08:23:07;;;;;;;5.80;3.90;;;;;;;6.72;100.00;94850.63;5067022;28;20620;-70
2023/03/10 08:25:35;;;;;;;4.60;3.50;;;;;;;6.92;100.00;94853.06;5065868;28;20230;-69
2023/03/10 08:28:03;;;;;;;3.60;3.30;;;;;;;7.12;100.00;94849.44;5043826;28;20564;-70
2023/03/10 08:30:30;;;;;;;3.10;2.80;;;;;;;7.10;100.00;94844.38;5064937;28;21098;-70
2023/03/10 08:32:59;;;;;;;3.43;3.13;;;;;;;7.36;100.00;94833.75;5066217;28;20226;-68
2023/03/10 08:35:27;;;;;;;3.07;2.87;;;;;;;7.76;100.00;94829.78;5022786;28;20221;-70
2023/03/10 08:37:55;;;;;;;3.20;3.00;;;;;;;7.71;100.00;94832.31;5053793;28;20202;-71
2023/03/10 08:40:23;;;;;;;2.73;2.53;;;;;;;7.73;100.00;94820.50;5063348;28;20199;-69
2023/03/10 08:42:52;;;;;;;5.27;3.60;;;;;;;7.73;100.00;94812.59;5036721;28;20288;-69
2023/03/10 08:45:19;;;;;;;2.77;2.57;;;;;;;7.59;100.00;94800.63;5064465;28;20226;-69
2023/03/10 08:47:47;;;;;;;3.73;2.90;;;;;;;7.49;100.00;94801.16;5058786;28;20284;-70
2023/03/10 08:50:16;;;;;;;2.80;2.37;;;;;;;7.51;100.00;94801.75;5018603;28;20210;-70
2023/03/10 08:52:44;;;;;;;3.67;3.47;;;;;;;7.43;100.00;94794.97;5073821;28;20194;-70
2023/03/10 08:55:12;;;;;;;3.10;2.80;;;;;;;7.36;100.00;94804.75;5067971;28;20503;-68
2023/03/10 08:57:39;;;;;;;3.27;2.40;;;;;;;7.28;100.00;94810.34;5049572;28;20263;-70
2023/03/10 09:00:11;;;;;;;3.17;2.87;;;;;;;7.10;100.00;94807.50;5069596;28;20577;-69
2023/03/10 09:02:39;;;;;;;3.03;2.77;;;;;;;7.20;100.00;94809.63;5064226;28;20442;-70
2023/03/10 09:05:10;;;;;;;4.33;2.37;;;;;;;7.22;100.00;94807.56;5062136;28;20297;-69
2023/03/10 09:07:39;;;;;;;2.40;2.30;;;;;;;7.30;100.00;94818.81;5043537;28;20228;-70
2023/03/10 09:10:07;;;;;;;2.57;2.40;;;;;;;7.39;100.00;94810.41;5067998;28;20578;-70
2023/03/10 09:12:36;;;;;;;2.97;2.30;;;;;;;7.51;100.00;94813.09;5050857;28;20416;-70
2023/03/10 09:15:06;;;;;;;2.63;2.43;;;;;;;7.64;100.00;94806.84;5071904;28;20247;-70
2023/03/10 09:17:34;;;;;;;2.47;2.27;;;;;;;7.72;100.00;94813.63;5067036;28;20221;-69
2023/03/10 09:20:06;;;;;;;2.53;2.33;;;;;;;7.93;100.00;94814.16;5052593;28;20482;-69
2023/03/10 09:22:34;;;;;;;2.23;2.10;;;;;;;7.96;100.00;94814.50;5022600;28;20203;-68
2023/03/10 09:25:04;;;;;;;2.47;2.27;;;;;;;7.86;100.00;94810.81;5060246;28;20622;-68
2023/03/10 09:27:31;;;;;;;2.30;2.10;;;;;;;7.94;100.00;94808.63;5035951;28;20852;-70
2023/03/10 09:29:59;;;;;;;2.60;2.40;;;;;;;7.99;100.00;94796.63;5042974;28;20854;-69
2023/03/10 09:32:28;;;;;;;7.17;3.30;;;;;;;8.04;100.00;94792.25;5056164;28;20275;-69
2023/03/10 09:34:56;;;;;;;2.40;2.20;;;;;;;8.21;100.00;94797.69;5065759;28;20532;-70
2023/03/10 09:37:23;;;;;;;2.47;2.30;;;;;;;8.37;100.00;94792.78;4993814;28;20210;-69
2023/03/10 09:39:51;;;;;;;2.87;2.53;;;;;;;8.26;100.00;94792.53;5067461;28;20206;-70
2023/03/10 09:42:32;;;;;;;2.67;2.30;;;;;;;8.55;100.00;94794.53;5052971;28;20422;-69
2023/03/10 09:45:17;;;;;;;3.63;2.70;;;;;;;9.18;100.00;94788.69;5039444;28;20484;-69
2023/03/10 09:47:52;;;;;;;2.23;2.13;;;;;;;9.50;100.00;94788.25;5066735;28;20289;-70
2023/03/10 09:50:29;;;;;;;2.20;2.10;;;;;;;9.85;100.00;94780.16;5071915;28;20263;-70
2023/03/10 09:53:00;;;;;;;2.37;2.10;;;;;;;10.25;100.00;94775.78;5017104;28;20244;-69
2023/03/10 09:55:30;;;;;;;2.57;2.27;;;;;;;10.35;100.00;94769.81;5060864;28;20225;-70
2023/03/10 09:57:59;;;;;;;3.70;3.40;;;;;;;10.28;100.00;94779.78;5048841;28;20233;-68
2023/03/10 10:00:34;;;;;;;2.40;2.20;;;;;;;10.49;100.00;94778.25;5045436;28;20202;-70
2023/03/10 10:03:05;;;;;;;2.90;2.27;;;;;;;10.20;100.00;94765.09;5057013;28;20618;-69
2023/03/10 10:05:37;;;;;;;2.60;2.40;;;;;;;10.22;100.00;94755.06;5067708;28;20614;-70
2023/03/10 10:08:14;;;;;;;2.83;2.63;;;;;;;9.72;100.00;94772.53;5065718;28;20502;-70
2023/03/10 10:10:42;;;;;;;2.63;2.53;;;;;;;9.73;100.00;94768.84;5025012;28;20207;-70
2023/03/10 10:13:14;;;;;;;4.20;3.07;;;;;;;9.42;100.00;94760.34;5053099;28;20225;-69
2023/03/10 10:15:45;;;;;;;3.10;2.87;;;;;;;9.48;100.00;94759.41;5047384;28;20705;-70
2023/03/10 10:18:14;;;;;;;2.83;2.50;;;;;;;9.92;100.00;94771.25;5070537;28;20202;-70
2023/03/10 10:20:52;;;;;;;1.83;1.73;;;;;;;10.35;100.00;94766.38;5068285;28;20197;-70
2023/03/10 10:23:23;;;;;;;2.20;2.00;;;;;;;10.41;100.00;94765.44;5057265;28;20286;-69
2023/03/10 10:25:52;;;;;;;2.57;2.47;;;;;;;10.30;100.00;94745.13;5025542;28;20843;-68
2023/03/10 10:28:25;;;;;;;3.60;1.97;;;;;;;10.29;100.00;94757.56;5059933;28;20800;-68
2023/03/10 10:31:09;;;;;;;2.73;2.10;;;;;;;10.30;100.00;94756.50;5045054;28;20217;-68
2023/03/10 10:33:55;;;;;;;2.93;2.07;;;;;;;10.30;100.00;94753.06;5041950;28;20238;-69
2023/03/10 10:36:24;;;;;;;1.60;1.50;;;;;;;10.43;99.57;94728.94;5056012;28;20230;-70
2023/03/10 10:38:54;;;;;;;2.77;2.57;;;;;;;10.61;95.71;94729.72;5058399;28;20405;-70
2023/03/10 10:41:26;;;;;;;5.53;2.27;;;;;;;10.90;89.51;94732.19;5025630;28;20425;-70
2023/03/10 10:43:58;;;;;;;1.13;0.90;;;;;;;11.36;85.92;94729.28;5040724;28;20213;-70
2023/03/10 10:46:28;;;;;;;3.70;2.20;;;;;;;11.32;81.68;94710.41;5043276;28;20308;-70
2023/03/10 10:49:07;;;;;;;1.87;1.77;;;;;;;11.43;81.21;94706.00;5064725;28;20202;-70
2023/03/10 10:51:37;;;;;;;1.10;1.00;;;;;;;11.34;78.02;94700.34;5059503;28;20401;-70
2023/03/10 10:54:27;;;;;;;1.30;1.03;;;;;;;11.36;78.10;94700.09;5053595;28;20701;-70
2023/03/10 10:56:56;;;;;;;1.33;1.33;;;;;;;11.05;76.78;94687.34;5022703;28;20487;-69
2023/03/10 10:59:29;;;;;;;1.67;1.13;;;;;;;10.80;77.47;94685.22;5055303;28;20205;-70
2023/03/10 11:01:58;;;;;;;0.80;0.80;;;;;;;10.60;78.31;94681.25;5037272;28;20447;-69
2023/03/10 11:04:27;;;;;;;1.60;0.90;;;;;;;10.40;81.71;94689.72;5064967;28;20670;-71
2023/03/10 11:07:10;;;;;;;1.13;0.77;;;;;;;10.27;85.63;94690.84;5056619;28;20215;-70
2023/03/10 11:09:38;;;;;;;0.90;0.90;;;;;;;10.25;88.29;94695.56;5036972;28;20202;-70
2023/03/10 11:12:09;;;;;;;1.07;0.80;;;;;;;10.61;89.93;94693.44;5026203;28;20210;-69
2023/03/10 11:14:52;;;;;;;0.70;0.70;;;;;;;10.75;83.34;94671.88;5073362;28;20241;-69
2023/03/10 11:17:24;;;;;;;1.03;0.63;;;;;;;10.91;83.66;94680.81;5020886;28;20228;-69
2023/03/10 11:19:57;;;;;;;0.93;0.60;;;;;;;10.99;81.95;94672.44;5068637;28;20205;-68
2023/03/10 11:22:33;;;;;;;0.90;0.60;;;;;;;11.05;80.91;94670.63;5058869;28;20312;-69
2023/03/10 11:25:03;;;;;;;0.77;0.77;;;;;;;10.95;80.38;94671.31;5068824;28;20198;-69
2023/03/10 11:27:43;;;;;;;0.50;0.50;;;;;;;11.24;79.92;94668.44;5012340;28;20351;-70
2023/03/10 11:30:17;;;;;;;0.90;0.90;;;;;;;11.29;78.31;94658.69;5062490;28;20214;-68
2023/03/10 11:32:56;;;;;;;0.90;0.90;;;;;;;11.69;77.52;94654.00;5044054;28;20198;-69
2023/03/10 11:35:27;;;;;;;0.40;0.40;;;;;;;11.64;76.23;94653.94;5060212;28;20232;-68
2023/03/10 11:38:03;;;;;;;0.50;0.50;;;;;;;11.30;76.76;94670.09;5066704;28;20190;-69
2023/03/10 11:40:36;;;;;;;1.13;0.40;;;;;;;11.49;77.80;94662.56;5049089;28;20293;-69
2023/03/10 11:43:09;;;;;;;0.93;0.93;;;;;;;12.22;75.31;94653.34;5022086;28;20237;-69